• Join FlightAware (Why Join?)
  • Login
  • US Flag 
12:15AM EDT


 

Airport Tracker/Info


-or-


 

Live Flight TrackerFlight Track Log ✈ EJA951 ✈ 12-Mar-2014 ✈ KOMA - KSDL

Flight Track Log - Related Links

Times and Time Zones

All times are in EDT time to prevent confusion due to time zone crossing. See the EJA951 flight status page for this flight to view local times or setup timezone preferences in your user account.

Time Position Orientation Groundspeed Altitude Reporting Facility
EDT Latitude Longitude Course Direction KTS MPH feet Rate Location/Type
05:17PM 41.3125 -95.9036 323° Northwest 166 191 1,700  Level Minneapolis Center
05:17PM 41.3528 -95.9433 323° Northwest 196 226 5,300 3,720 Climbing Minneapolis Center
05:18PM 41.3672 -95.9492 343° North 203 234 6,400 3,180 Climbing Minneapolis Center
05:19PM 41.3842 -96.0172 288° West 220 253 9,700 3,780 Climbing Minneapolis Center
05:20PM 41.3075 -96.1142 224° Southwest 283 326 14,300 3,120 Climbing Minneapolis Center
05:21PM 41.2497 -96.2103 231° Southwest 327 376 16,100 1,620 Climbing Minneapolis Center
05:22PM 41.1839 -96.3208 232° Southwest 360 414 17,700 1,860 Climbing Minneapolis Center
05:23PM 41.1131 -96.4339 230° Southwest 391 450 20,000 2,040 Climbing Minneapolis Center
05:24PM 41.0403 -96.5522 231° Southwest 408 470 22,000 2,040 Climbing Minneapolis Center
05:25PM 40.9653 -96.6744 231° Southwest 422 486 24,300 2,040 Climbing Minneapolis Center
05:26PM 40.8864 -96.8011 231° Southwest 437 503 26,200 1,920 Climbing Minneapolis Center
05:27PM 40.8372 -96.9508 247° West 441 507 28,300 2,100 Climbing Minneapolis Center
05:28PM 40.7867 -97.1414 251° West 454 522 30,600 1,980 Climbing Minneapolis Center
05:29PM 40.7403 -97.3014 249° West 461 531 32,500 1,980 Climbing Minneapolis Center
05:30PM 40.6928 -97.4692 250° West 468 539 34,700 2,040 Climbing Minneapolis Center
05:31PM 40.6478 -97.6278 250° West 466 536 36,800 1,800 Climbing Minneapolis Center
05:32PM 40.6033 -97.7794 249° West 452 520 38,500 1,440 Climbing Minneapolis Center
05:33PM 40.5603 -97.9286 249° West 440 506 39,800 720 Climbing Minneapolis Center
05:34PM 40.5175 -98.0775 249° West 437 503 40,000 60 Climbing Minneapolis Center
05:35PM 40.4722 -98.2325 249° West 444 511 40,000  Level Minneapolis Center
05:36PM 40.4253 -98.3897 249° West 454 522 40,000  Level Minneapolis Center
05:37PM 40.3686 -98.5808 249° West 461 531 40,000  Level Minneapolis Center
05:38PM 40.3225 -98.7392 249° West 461 531 40,000  Level Minneapolis Center
05:39PM 40.2750 -98.8981 249° West 462 532 40,000  Level Minneapolis Center
05:40PM 40.2267 -99.0567 248° West 463 533 40,000  Level Minneapolis Center
05:41PM 40.1769 -99.2144 248° West 464 534 40,000  Level Minneapolis Center
05:43PM 40.1289 -99.3733 248° West 464 534 40,000  Level Minneapolis Center
05:44PM 40.0806 -99.5314 248° West 468 539 40,000  Level Denver Center
05:45PM 40.0322 -99.6900 248° West 468 539 40,000  Level Denver Center
05:46PM 39.9844 -99.8456 248° West 466 536 40,000  Level Denver Center
05:47PM 39.9253 -100.0306 247° West 463 533 40,000  Level Denver Center
05:48PM 39.8767 -100.1867 248° West 463 533 40,000  Level Denver Center
05:49PM 39.8275 -100.3406 247° West 461 531 40,000  Level Denver Center
05:50PM 39.7806 -100.4903 248° West 466 536 40,000  Level Denver Center
05:51PM 39.7244 -100.6619 247° West 464 534 40,000  Level Denver Center
05:52PM 39.6764 -100.8111 247° West 464 534 40,000  Level Denver Center
05:53PM 39.6200 -100.9861 247° West 465 535 40,000  Level Denver Center
05:54PM 39.5711 -101.1336 247° West 466 536 40,000  Level Denver Center
05:55PM 39.5147 -101.3083 247° West 469 540 40,000  Level Denver Center
05:56PM 39.4653 -101.4564 247° West 468 539 40,000  Level Denver Center
05:57PM 39.4086 -101.6278 247° West 467 537 40,000  Level Denver Center
05:58PM 39.3519 -101.7706 243° Southwest 467 537 40,000  Level Denver Center
05:59PM 39.2819 -101.9200 239° Southwest 467 537 40,000  Level Denver Center
06:00PM 39.1972 -102.1008 239° Southwest 466 536 40,000  Level Denver Center
06:01PM 39.1331 -102.2350 238° Southwest 462 532 40,000  Level Denver Center
06:02PM 39.0583 -102.3947 239° Southwest 465 535 40,000  Level Denver Center
06:03PM 38.9933 -102.5308 238° Southwest 466 536 40,000  Level Denver Center
06:04PM 38.9183 -102.6889 239° Southwest 466 536 40,000  Level Denver Center
06:05PM 38.8553 -102.8203 238° Southwest 466 536 40,000  Level Denver Center
06:07PM 38.7872 -102.9622 238° Southwest 466 536 40,000  Level Denver Center
06:08PM 38.7047 -103.1308 238° Southwest 466 536 40,000  Level Denver Center
06:09PM 38.6375 -103.2706 238° Southwest 464 534 40,000  Level Denver Center
06:10PM 38.5731 -103.4031 238° Southwest 462 532 40,000  Level Denver Center
06:11PM 38.5031 -103.5439 238° Southwest 462 532 40,000  Level Denver Center
06:12PM 38.4278 -103.6986 238° Southwest 462 532 40,000  Level Denver Center
06:13PM 38.3628 -103.8308 238° Southwest 462 532 40,000  Level Denver Center
06:14PM 38.2858 -103.9842 237° Southwest 461 531 40,000  Level Denver Center
06:15PM 38.2219 -104.1139 238° Southwest 460 529 40,000  Level Denver Center
06:16PM 38.1453 -104.2658 237° Southwest 459 528 40,000  Level Denver Center
06:17PM 38.0797 -104.3958 237° Southwest 459 528 40,000  Level Denver Center
06:18PM 38.0044 -104.5458 238° Southwest 458 527 40,000  Level Denver Center
06:19PM 37.9386 -104.6753 237° Southwest 458 527 40,000  Level Denver Center
06:20PM 37.8614 -104.8258 237° Southwest 458 527 40,000  Level Denver Center
06:21PM 37.7956 -104.9561 237° Southwest 459 528 40,000  Level Denver Center
06:22PM 37.7183 -105.1067 237° Southwest 459 528 40,000  Level Denver Center
06:23PM 37.6517 -105.2333 236° Southwest 455 524 40,000  Level Denver Center
06:24PM 37.5736 -105.3833 237° Southwest 455 524 40,000  Level Denver Center
06:25PM 37.5053 -105.5186 238° Southwest 455 524 40,000  Level Denver Center
06:26PM 37.4369 -105.6461 236° Southwest 457 526 40,000  Level Denver Center
06:27PM 37.3575 -105.7964 236° Southwest 458 527 40,000  Level Denver Center
06:28PM 37.2856 -105.9217 234° Southwest 460 529 40,000  Level Denver Center
06:29PM 37.1997 -106.0661 233° Southwest 461 531 40,000  Level Denver Center
06:30PM 37.1264 -106.1900 233° Southwest 462 532 40,000  Level Denver Center
06:31PM 37.0411 -106.3333 233° Southwest 461 531 40,000  Level Denver Center
06:32PM 36.9694 -106.4567 234° Southwest 457 526 40,000  Level Denver Center
06:33PM 36.8833 -106.5989 233° Southwest 458 527 40,000  Level Denver Center
06:34PM 36.8108 -106.7214 234° Southwest 458 527 40,000  Level Denver Center
06:35PM 36.7256 -106.8647 233° Southwest 458 527 40,000  Level Denver Center
06:37PM 36.6508 -106.9847 232° Southwest 458 527 40,000  Level Denver Center
06:38PM 36.5653 -107.1269 233° Southwest 459 528 40,000  Level Denver Center
06:39PM 36.4908 -107.2483 233° Southwest 459 528 40,000  Level Denver Center
06:40PM 36.4175 -107.3689 233° Southwest 458 527 40,000  Level Denver Center
06:41PM 36.3325 -107.5086 233° Southwest 458 527 40,000  Level Denver Center
06:42PM 36.2583 -107.6283 232° Southwest 458 527 40,000  Level Denver Center
06:43PM 36.1594 -107.7881 233° Southwest 455 524 40,000  Level Albuquerque Center
06:44PM 36.0864 -107.9081 233° Southwest 455 524 40,000  Level Albuquerque Center
06:45PM 36.0122 -108.0264 232° Southwest 454 522 40,000  Level Albuquerque Center
06:46PM 35.9250 -108.1658 232° Southwest 457 526 40,000  Level Albuquerque Center
06:47PM 35.8506 -108.2833 232° Southwest 454 522 40,000  Level Albuquerque Center
06:48PM 35.7656 -108.4194 232° Southwest 449 517 40,000  Level Albuquerque Center
06:49PM 35.6911 -108.5378 232° Southwest 451 519 40,000  Level Albuquerque Center
06:50PM 35.6014 -108.6747 231° Southwest 456 525 40,000  Level Albuquerque Center
06:51PM 35.5272 -108.7925 232° Southwest 454 522 40,000  Level Albuquerque Center
06:52PM 35.4706 -108.9206 242° Southwest 453 521 40,000  Level Albuquerque Center
06:53PM 35.4525 -109.0867 262° West 442 509 40,000  Level Albuquerque Center
06:54PM 35.4383 -109.2325 263° West 444 511 40,000  Level Albuquerque Center
06:55PM 35.4197 -109.4006 262° West 446 513 40,000  Level Albuquerque Center
06:56PM 35.4044 -109.5422 263° West 441 507 40,000  Level Albuquerque Center
06:57PM 35.3844 -109.7108 262° West 445 512 40,000  Level Albuquerque Center
06:58PM 35.3686 -109.8531 262° West 443 510 40,000  Level Albuquerque Center
06:59PM 35.3481 -110.0172 261° West 446 513 40,000  Level Albuquerque Center
07:00PM 35.3311 -110.1594 262° West 442 509 40,000  Level Albuquerque Center
07:01PM 35.3131 -110.3019 261° West 443 510 40,000  Level Albuquerque Center
07:02PM 35.2933 -110.4689 262° West 444 511 40,000 -180 Level Albuquerque Center
07:03PM 35.2764 -110.6119 262° West 444 511 39,700 -1,200 Descending Albuquerque Center
07:05PM 35.2569 -110.7736 262° West 434 499 37,600 -1,800 Descending Albuquerque Center
07:06PM 35.2383 -110.9128 261° West 433 498 36,000 -780 Descending Albuquerque Center
07:07PM 35.1756 -111.0567 242° Southwest 443 510 36,000 -240 Level Albuquerque Center
07:08PM 35.0864 -111.1431 218° Southwest 465 535 35,600 -1,560 Descending Albuquerque Center
07:09PM 34.9653 -111.2489 216° Southwest 450 518 32,800 -2,460 Descending Albuquerque Center
07:10PM 34.8656 -111.3367 216° Southwest 445 512 30,600 -2,160 Descending Albuquerque Center
07:11PM 34.7636 -111.4267 216° Southwest 449 517 28,400 -2,520 Descending Albuquerque Center
07:12PM 34.6647 -111.5144 216° Southwest 446 513 25,500 -2,760 Descending Albuquerque Center
07:13PM 34.5686 -111.5994 216° Southwest 436 502 22,700 -2,700 Descending Albuquerque Center
07:14PM 34.4731 -111.6833 216° Southwest 429 494 20,000 -2,880 Descending Albuquerque Center
07:15PM 34.3619 -111.7806 216° Southwest 418 481 16,800 -2,700 Descending Albuquerque Center
07:16PM 34.2836 -111.8478 215° Southwest 365 420 14,500 -2,280 Descending Albuquerque Center
07:17PM 34.2117 -111.9097 215° Southwest 331 381 12,200 -1,260 Descending Albuquerque Center
07:18PM 34.1333 -111.9247 189° South 294 338 12,000 -960 Descending Albuquerque Center
07:19PM 34.0547 -111.9222 178° South 285 328 10,300 -1,860 Descending Albuquerque Center
07:20PM 33.9653 -111.9200 179° South 274 315 8,200 -1,620 Descending Albuquerque Center
07:21PM 33.9031 -111.9167 177° South 229 264 7,000 -600 Descending Albuquerque Center
07:22PM 33.8414 -111.9161 180° South 223 257 7,000 -420 Level Albuquerque Center
07:23PM 33.7767 -111.9108 176° South 234 269 6,200 -1,140 Descending Albuquerque Center
07:24PM 33.7231 -111.8864 159° South 207 238 4,700 -1,500 Descending Albuquerque Center
07:25PM 33.6792 -111.8664 159° South 183 211 3,100 -1,380 Descending Albuquerque Center
07:26PM 33.6406 -111.8883 205° Southwest 148 170 1,900 -840 Descending Albuquerque Center
07:27PM 33.6150 -111.9153 221° Southwest 141 162 1,500 -420 Descending Albuquerque Center